チューリッヒ の空港の天気 - METARとTAF

チューリヒ国際空港 ( LSZH / ZRH ) - スイス チューリッヒ
飛行場実況気象(Metar)
観測時間04/19 13:20 CEST (04/19 11:20 UTC)
風向・風速北北東 2m/s
視程10km以上
天気現象
なし
気温22℃
湿度38%
気圧1028hPa
METARLSZH 191120Z 02004KT 320V070 CAVOK 22/07 Q1028 NOSIG
過去の天気等 Google飛行場航空写真 Wunderground天気予報

過去48時間のMETAR

飛行場予報(TAF)
発表時間: 4/19 13:25 CEST (4/19 11:25 UTC)
予報対象時間: 19日14時 CEST ~ 20日20時 CEST
風向・風速不定 2m/s
視程10km以上
なし
19日14時 CEST ~ 19日18時 CEST に 確率 30% で一時的に
風向・風速北東 3m/s
TAF LSZH 191125Z 1912/2018 VRB03KT CAVOK TX26/1914Z TN07/2005Z TX26/2014Z
PROB30 TEMPO 1912/1916 05005KT